sensor_id;sensor_type;location;lat;lon;timestamp;P1;P2;P0
40947;PMS5003;49382;-25.924;28.194;2022-10-20T00:00:18;65;63;
40947;PMS5003;49382;-25.924;28.194;2022-10-20T00:02:43;65;64;
40947;PMS5003;49382;-25.924;28.194;2022-10-20T00:05:09;63;61;
40947;PMS5003;49382;-25.924;28.194;2022-10-20T00:07:34;66;65;
40947;PMS5003;49382;-25.924;28.194;2022-10-20T00:09:59;58;57;
40947;PMS5003;49382;-25.924;28.194;2022-10-20T00:12:24;66;65;
40947;PMS5003;49382;-25.924;28.194;2022-10-20T00:14:50;66;66;
40947;PMS5003;49382;-25.924;28.194;2022-10-20T00:17:16;71;70;
40947;PMS5003;49382;-25.924;28.194;2022-10-20T00:19:40;65;64;
40947;PMS5003;49382;-25.924;28.194;2022-10-20T00:22:06;67;66;
40947;PMS5003;49382;-25.924;28.194;2022-10-20T00:24:31;73;72;
40947;PMS5003;49382;-25.924;28.194;2022-10-20T00:26:56;67;67;
40947;PMS5003;49382;-25.924;28.194;2022-10-20T00:29:22;67;66;
40947;PMS5003;49382;-25.924;28.194;2022-10-20T00:31:47;78;77;
40947;PMS5003;49382;-25.924;28.194;2022-10-20T00:34:13;103;103;
40947;PMS5003;49382;-25.924;28.194;2022-10-20T00:36:38;75;74;
40947;PMS5003;49382;-25.924;28.194;2022-10-20T00:39:04;75;71;
40947;PMS5003;49382;-25.924;28.194;2022-10-20T00:41:29;74;73;
40947;PMS5003;49382;-25.924;28.194;2022-10-20T00:43:56;84;84;
40947;PMS5003;49382;-25.924;28.194;2022-10-20T00:46:22;70;68;
40947;PMS5003;49382;-25.924;28.194;2022-10-20T00:48:47;70;69;
40947;PMS5003;49382;-25.924;28.194;2022-10-20T00:51:12;68;66;
40947;PMS5003;49382;-25.924;28.194;2022-10-20T00:53:37;72;70;
40947;PMS5003;49382;-25.924;28.194;2022-10-20T00:56:02;71;70;
40947;PMS5003;49382;-25.924;28.194;2022-10-20T00:58:27;69;68;
40947;PMS5003;49382;-25.924;28.194;2022-10-20T01:00:54;66;65;
40947;PMS5003;49382;-25.924;28.194;2022-10-20T01:03:19;69;69;
40947;PMS5003;49382;-25.924;28.194;2022-10-20T01:05:44;66;66;
40947;PMS5003;49382;-25.924;28.194;2022-10-20T01:08:09;67;66;
40947;PMS5003;49382;-25.924;28.194;2022-10-20T01:10:37;71;70;
40947;PMS5003;49382;-25.924;28.194;2022-10-20T01:13:02;71;70;
40947;PMS5003;49382;-25.924;28.194;2022-10-20T01:15:28;159;158;
40947;PMS5003;49382;-25.924;28.194;2022-10-20T01:17:54;79;79;
40947;PMS5003;49382;-25.924;28.194;2022-10-20T01:25:15;74;74;
40947;PMS5003;49382;-25.924;28.194;2022-10-20T01:27:35;67;67;
40947;PMS5003;49382;-25.924;28.194;2022-10-20T01:30:03;67;67;
40947;PMS5003;49382;-25.924;28.194;2022-10-20T01:32:28;64;63;
40947;PMS5003;49382;-25.924;28.194;2022-10-20T01:34:53;66;66;
40947;PMS5003;49382;-25.924;28.194;2022-10-20T01:37:16;72;71;
40947;PMS5003;49382;-25.924;28.194;2022-10-20T01:39:43;70;67;
40947;PMS5003;49382;-25.924;28.194;2022-10-20T01:42:07;72;70;
40947;PMS5003;49382;-25.924;28.194;2022-10-20T01:44:32;70;68;
40947;PMS5003;49382;-25.924;28.194;2022-10-20T01:46:57;67;67;
40947;PMS5003;49382;-25.924;28.194;2022-10-20T01:49:23;67;65;
40947;PMS5003;49382;-25.924;28.194;2022-10-20T01:51:48;67;63;
40947;PMS5003;49382;-25.924;28.194;2022-10-20T01:56:41;63;63;
40947;PMS5003;49382;-25.924;28.194;2022-10-20T01:59:10;63;62;
40947;PMS5003;49382;-25.924;28.194;2022-10-20T02:01:33;69;68;
40947;PMS5003;49382;-25.924;28.194;2022-10-20T02:03:55;67;66;
40947;PMS5003;49382;-25.924;28.194;2022-10-20T02:06:26;56;56;
40947;PMS5003;49382;-25.924;28.194;2022-10-20T02:08:46;59;59;
40947;PMS5003;49382;-25.924;28.194;2022-10-20T02:11:13;57;57;
40947;PMS5003;49382;-25.924;28.194;2022-10-20T02:13:36;52;51;
40947;PMS5003;49382;-25.924;28.194;2022-10-20T02:16:03;58;56;
40947;PMS5003;49382;-25.924;28.194;2022-10-20T02:18:29;53;52;
40947;PMS5003;49382;-25.924;28.194;2022-10-20T02:20:54;50;50;
40947;PMS5003;49382;-25.924;28.194;2022-10-20T02:23:19;52;51;
40947;PMS5003;49382;-25.924;28.194;2022-10-20T02:25:44;50;49;
40947;PMS5003;49382;-25.924;28.194;2022-10-20T02:28:09;51;51;
40947;PMS5003;49382;-25.924;28.194;2022-10-20T02:30:34;52;52;
40947;PMS5003;49382;-25.924;28.194;2022-10-20T02:33:00;47;47;
40947;PMS5003;49382;-25.924;28.194;2022-10-20T02:35:28;53;52;
40947;PMS5003;49382;-25.924;28.194;2022-10-20T02:37:50;50;48;
40947;PMS5003;49382;-25.924;28.194;2022-10-20T02:40:16;48;48;
40947;PMS5003;49382;-25.924;28.194;2022-10-20T02:42:41;44;43;
40947;PMS5003;49382;-25.924;28.194;2022-10-20T02:45:07;45;45;
40947;PMS5003;49382;-25.924;28.194;2022-10-20T02:47:32;42;42;
40947;PMS5003;49382;-25.924;28.194;2022-10-20T02:49:57;43;43;
40947;PMS5003;49382;-25.924;28.194;2022-10-20T02:52:22;47;46;
40947;PMS5003;49382;-25.924;28.194;2022-10-20T02:54:49;40;40;
40947;PMS5003;49382;-25.924;28.194;2022-10-20T02:57:14;47;45;
40947;PMS5003;49382;-25.924;28.194;2022-10-20T02:59:39;44;43;
40947;PMS5003;49382;-25.924;28.194;2022-10-20T03:02:05;48;47;
40947;PMS5003;49382;-25.924;28.194;2022-10-20T03:04:30;43;43;
40947;PMS5003;49382;-25.924;28.194;2022-10-20T03:06:56;44;42;
40947;PMS5003;49382;-25.924;28.194;2022-10-20T03:09:21;46;45;
40947;PMS5003;49382;-25.924;28.194;2022-10-20T03:11:46;48;46;
40947;PMS5003;49382;-25.924;28.194;2022-10-20T03:14:11;44;43;
40947;PMS5003;49382;-25.924;28.194;2022-10-20T03:16:37;47;47;
40947;PMS5003;49382;-25.924;28.194;2022-10-20T03:19:02;46;45;
40947;PMS5003;49382;-25.924;28.194;2022-10-20T03:21:28;45;44;
40947;PMS5003;49382;-25.924;28.194;2022-10-20T03:23:52;45;45;
40947;PMS5003;49382;-25.924;28.194;2022-10-20T03:26:18;44;43;
40947;PMS5003;49382;-25.924;28.194;2022-10-20T03:28:43;45;44;
40947;PMS5003;49382;-25.924;28.194;2022-10-20T03:31:09;45;45;
40947;PMS5003;49382;-25.924;28.194;2022-10-20T03:33:34;40;40;
40947;PMS5003;49382;-25.924;28.194;2022-10-20T03:36:00;48;45;
40947;PMS5003;49382;-25.924;28.194;2022-10-20T03:38:25;44;44;
40947;PMS5003;49382;-25.924;28.194;2022-10-20T03:40:51;38;37;
40947;PMS5003;49382;-25.924;28.194;2022-10-20T03:43:15;40;39;
40947;PMS5003;49382;-25.924;28.194;2022-10-20T03:45:41;40;40;
40947;PMS5003;49382;-25.924;28.194;2022-10-20T03:48:07;40;39;
40947;PMS5003;49382;-25.924;28.194;2022-10-20T03:50:33;37;37;
40947;PMS5003;49382;-25.924;28.194;2022-10-20T03:52:58;43;41;
40947;PMS5003;49382;-25.924;28.194;2022-10-20T03:55:23;39;39;
40947;PMS5003;49382;-25.924;28.194;2022-10-20T03:57:49;36;36;
40947;PMS5003;49382;-25.924;28.194;2022-10-20T04:00:14;37;37;
40947;PMS5003;49382;-25.924;28.194;2022-10-20T04:02:41;40;40;
40947;PMS5003;49382;-25.924;28.194;2022-10-20T04:05:05;36;35;
40947;PMS5003;49382;-25.924;28.194;2022-10-20T04:07:30;39;38;
40947;PMS5003;49382;-25.924;28.194;2022-10-20T04:09:56;38;37;
40947;PMS5003;49382;-25.924;28.194;2022-10-20T04:12:22;33;33;
40947;PMS5003;49382;-25.924;28.194;2022-10-20T04:14:47;43;43;
40947;PMS5003;49382;-25.924;28.194;2022-10-20T04:17:12;37;37;
40947;PMS5003;49382;-25.924;28.194;2022-10-20T04:19:38;43;42;
40947;PMS5003;49382;-25.924;28.194;2022-10-20T04:22:02;41;41;
40947;PMS5003;49382;-25.924;28.194;2022-10-20T04:24:28;40;39;
40947;PMS5003;49382;-25.924;28.194;2022-10-20T04:26:53;37;37;
40947;PMS5003;49382;-25.924;28.194;2022-10-20T04:29:19;40;39;
40947;PMS5003;49382;-25.924;28.194;2022-10-20T04:31:44;36;36;
40947;PMS5003;49382;-25.924;28.194;2022-10-20T04:34:10;31;30;
40947;PMS5003;49382;-25.924;28.194;2022-10-20T04:36:35;33;31;
40947;PMS5003;49382;-25.924;28.194;2022-10-20T04:39:00;29;29;
40947;PMS5003;49382;-25.924;28.194;2022-10-20T04:41:25;26;26;
40947;PMS5003;49382;-25.924;28.194;2022-10-20T04:43:51;26;26;
40947;PMS5003;49382;-25.924;28.194;2022-10-20T04:46:16;28;28;
40947;PMS5003;49382;-25.924;28.194;2022-10-20T04:48:41;27;27;
40947;PMS5003;49382;-25.924;28.194;2022-10-20T04:51:07;27;26;
40947;PMS5003;49382;-25.924;28.194;2022-10-20T04:53:32;27;27;
40947;PMS5003;49382;-25.924;28.194;2022-10-20T04:55:58;26;26;
40947;PMS5003;49382;-25.924;28.194;2022-10-20T04:58:23;24;24;
40947;PMS5003;49382;-25.924;28.194;2022-10-20T05:00:48;29;28;
40947;PMS5003;49382;-25.924;28.194;2022-10-20T05:03:14;28;26;
40947;PMS5003;49382;-25.924;28.194;2022-10-20T05:05:39;26;26;
40947;PMS5003;49382;-25.924;28.194;2022-10-20T05:08:04;28;27;
40947;PMS5003;49382;-25.924;28.194;2022-10-20T05:10:30;27;27;
40947;PMS5003;49382;-25.924;28.194;2022-10-20T05:12:56;25;25;
40947;PMS5003;49382;-25.924;28.194;2022-10-20T05:15:22;26;26;
40947;PMS5003;49382;-25.924;28.194;2022-10-20T05:17:47;28;28;
40947;PMS5003;49382;-25.924;28.194;2022-10-20T05:20:13;24;24;
40947;PMS5003;49382;-25.924;28.194;2022-10-20T05:22:38;27;27;
40947;PMS5003;49382;-25.924;28.194;2022-10-20T05:25:04;28;28;
40947;PMS5003;49382;-25.924;28.194;2022-10-20T05:27:29;22;22;
40947;PMS5003;49382;-25.924;28.194;2022-10-20T05:29:55;23;23;
40947;PMS5003;49382;-25.924;28.194;2022-10-20T05:32:20;23;22;
40947;PMS5003;49382;-25.924;28.194;2022-10-20T05:34:46;23;23;
40947;PMS5003;49382;-25.924;28.194;2022-10-20T05:37:12;35;35;
40947;PMS5003;49382;-25.924;28.194;2022-10-20T05:39:37;46;46;
40947;PMS5003;49382;-25.924;28.194;2022-10-20T05:42:03;29;29;
40947;PMS5003;49382;-25.924;28.194;2022-10-20T05:44:28;22;22;
40947;PMS5003;49382;-25.924;28.194;2022-10-20T05:46:54;27;26;
40947;PMS5003;49382;-25.924;28.194;2022-10-20T05:49:20;23;22;
40947;PMS5003;49382;-25.924;28.194;2022-10-20T05:51:45;22;22;
40947;PMS5003;49382;-25.924;28.194;2022-10-20T05:54:11;23;23;
40947;PMS5003;49382;-25.924;28.194;2022-10-20T05:56:36;25;24;
40947;PMS5003;49382;-25.924;28.194;2022-10-20T05:59:02;20;20;
40947;PMS5003;49382;-25.924;28.194;2022-10-20T06:01:29;24;24;
40947;PMS5003;49382;-25.924;28.194;2022-10-20T06:03:55;25;24;
40947;PMS5003;49382;-25.924;28.194;2022-10-20T06:06:19;22;21;
40947;PMS5003;49382;-25.924;28.194;2022-10-20T06:08:45;23;23;
40947;PMS5003;49382;-25.924;28.194;2022-10-20T06:11:11;22;20;
40947;PMS5003;49382;-25.924;28.194;2022-10-20T06:13:37;21;21;
40947;PMS5003;49382;-25.924;28.194;2022-10-20T06:16:02;22;22;
40947;PMS5003;49382;-25.924;28.194;2022-10-20T06:18:27;21;21;
40947;PMS5003;49382;-25.924;28.194;2022-10-20T06:23:18;19;18;
40947;PMS5003;49382;-25.924;28.194;2022-10-20T06:25:44;19;19;
40947;PMS5003;49382;-25.924;28.194;2022-10-20T06:28:09;19;19;
40947;PMS5003;49382;-25.924;28.194;2022-10-20T06:30:35;20;20;
40947;PMS5003;49382;-25.924;28.194;2022-10-20T06:33:00;23;23;
40947;PMS5003;49382;-25.924;28.194;2022-10-20T06:35:25;25;24;
40947;PMS5003;49382;-25.924;28.194;2022-10-20T06:37:51;35;35;
40947;PMS5003;49382;-25.924;28.194;2022-10-20T06:40:16;31;31;
40947;PMS5003;49382;-25.924;28.194;2022-10-20T06:42:41;28;28;
40947;PMS5003;49382;-25.924;28.194;2022-10-20T06:45:07;46;45;
40947;PMS5003;49382;-25.924;28.194;2022-10-20T06:47:33;63;63;
40947;PMS5003;49382;-25.924;28.194;2022-10-20T06:49:58;46;44;
40947;PMS5003;49382;-25.924;28.194;2022-10-20T06:52:24;22;21;
40947;PMS5003;49382;-25.924;28.194;2022-10-20T06:54:50;32;31;
40947;PMS5003;49382;-25.924;28.194;2022-10-20T06:57:16;19;19;
40947;PMS5003;49382;-25.924;28.194;2022-10-20T06:59:41;19;17;
40947;PMS5003;49382;-25.924;28.194;2022-10-20T07:02:08;20;19;
40947;PMS5003;49382;-25.924;28.194;2022-10-20T07:04:33;17;17;
40947;PMS5003;49382;-25.924;28.194;2022-10-20T07:06:58;18;18;
40947;PMS5003;49382;-25.924;28.194;2022-10-20T07:09:24;20;20;
40947;PMS5003;49382;-25.924;28.194;2022-10-20T07:11:50;21;20;
40947;PMS5003;49382;-25.924;28.194;2022-10-20T07:14:15;18;18;
40947;PMS5003;49382;-25.924;28.194;2022-10-20T07:16:41;19;18;
40947;PMS5003;49382;-25.924;28.194;2022-10-20T07:19:06;19;18;
40947;PMS5003;49382;-25.924;28.194;2022-10-20T07:21:32;21;20;
40947;PMS5003;49382;-25.924;28.194;2022-10-20T07:23:59;20;20;
40947;PMS5003;49382;-25.924;28.194;2022-10-20T07:26:24;20;20;
40947;PMS5003;49382;-25.924;28.194;2022-10-20T07:28:49;17;17;
40947;PMS5003;49382;-25.924;28.194;2022-10-20T07:31:15;21;20;
40947;PMS5003;49382;-25.924;28.194;2022-10-20T07:33:40;21;20;
40947;PMS5003;49382;-25.924;28.194;2022-10-20T07:38:32;21;21;
40947;PMS5003;49382;-25.924;28.194;2022-10-20T07:41:00;18;18;
40947;PMS5003;49382;-25.924;28.194;2022-10-20T07:43:23;22;19;
40947;PMS5003;49382;-25.924;28.194;2022-10-20T07:45:49;18;18;
40947;PMS5003;49382;-25.924;28.194;2022-10-20T07:48:14;20;20;
40947;PMS5003;49382;-25.924;28.194;2022-10-20T07:50:40;22;21;
40947;PMS5003;49382;-25.924;28.194;2022-10-20T07:53:06;19;18;
40947;PMS5003;49382;-25.924;28.194;2022-10-20T07:55:32;20;19;
40947;PMS5003;49382;-25.924;28.194;2022-10-20T07:57:58;19;19;
40947;PMS5003;49382;-25.924;28.194;2022-10-20T08:00:23;20;20;
40947;PMS5003;49382;-25.924;28.194;2022-10-20T08:02:49;20;20;
40947;PMS5003;49382;-25.924;28.194;2022-10-20T08:05:15;21;21;
40947;PMS5003;49382;-25.924;28.194;2022-10-20T08:07:40;21;20;
40947;PMS5003;49382;-25.924;28.194;2022-10-20T08:10:07;22;22;
40947;PMS5003;49382;-25.924;28.194;2022-10-20T08:12:32;21;21;
40947;PMS5003;49382;-25.924;28.194;2022-10-20T08:14:58;22;22;
40947;PMS5003;49382;-25.924;28.194;2022-10-20T08:17:23;56;56;
40947;PMS5003;49382;-25.924;28.194;2022-10-20T08:19:48;72;72;
40947;PMS5003;49382;-25.924;28.194;2022-10-20T08:22:13;55;54;
40947;PMS5003;49382;-25.924;28.194;2022-10-20T08:24:39;42;42;
40947;PMS5003;49382;-25.924;28.194;2022-10-20T08:27:04;45;45;
40947;PMS5003;49382;-25.924;28.194;2022-10-20T08:29:29;58;57;
40947;PMS5003;49382;-25.924;28.194;2022-10-20T08:31:54;56;55;
40947;PMS5003;49382;-25.924;28.194;2022-10-20T08:34:20;42;42;
40947;PMS5003;49382;-25.924;28.194;2022-10-20T08:36:46;36;34;
40947;PMS5003;49382;-25.924;28.194;2022-10-20T08:39:12;47;46;
40947;PMS5003;49382;-25.924;28.194;2022-10-20T08:41:38;38;38;
40947;PMS5003;49382;-25.924;28.194;2022-10-20T08:44:03;52;51;
40947;PMS5003;49382;-25.924;28.194;2022-10-20T08:46:29;29;29;
40947;PMS5003;49382;-25.924;28.194;2022-10-20T08:48:54;25;24;
40947;PMS5003;49382;-25.924;28.194;2022-10-20T08:51:21;39;38;
40947;PMS5003;49382;-25.924;28.194;2022-10-20T08:53:46;28;26;
40947;PMS5003;49382;-25.924;28.194;2022-10-20T08:56:11;24;23;
40947;PMS5003;49382;-25.924;28.194;2022-10-20T08:58:40;26;24;
40947;PMS5003;49382;-25.924;28.194;2022-10-20T09:01:04;27;27;
40947;PMS5003;49382;-25.924;28.194;2022-10-20T09:03:28;22;22;
40947;PMS5003;49382;-25.924;28.194;2022-10-20T09:05:54;27;27;
40947;PMS5003;49382;-25.924;28.194;2022-10-20T09:08:19;23;22;
40947;PMS5003;49382;-25.924;28.194;2022-10-20T09:10:45;26;25;
40947;PMS5003;49382;-25.924;28.194;2022-10-20T09:13:13;23;23;
40947;PMS5003;49382;-25.924;28.194;2022-10-20T09:15:36;22;22;
40947;PMS5003;49382;-25.924;28.194;2022-10-20T09:18:02;22;21;
40947;PMS5003;49382;-25.924;28.194;2022-10-20T09:20:28;23;23;
40947;PMS5003;49382;-25.924;28.194;2022-10-20T09:22:53;23;23;
40947;PMS5003;49382;-25.924;28.194;2022-10-20T09:25:19;27;27;
40947;PMS5003;49382;-25.924;28.194;2022-10-20T09:27:44;25;22;
40947;PMS5003;49382;-25.924;28.194;2022-10-20T09:30:14;22;22;
40947;PMS5003;49382;-25.924;28.194;2022-10-20T09:32:35;22;22;
40947;PMS5003;49382;-25.924;28.194;2022-10-20T09:37:27;41;39;
40947;PMS5003;49382;-25.924;28.194;2022-10-20T09:39:53;33;33;
40947;PMS5003;49382;-25.924;28.194;2022-10-20T09:42:18;48;47;
40947;PMS5003;49382;-25.924;28.194;2022-10-20T09:44:46;29;29;
40947;PMS5003;49382;-25.924;28.194;2022-10-20T09:47:10;29;29;
40947;PMS5003;49382;-25.924;28.194;2022-10-20T09:49:35;25;25;
40947;PMS5003;49382;-25.924;28.194;2022-10-20T09:52:00;21;21;
40947;PMS5003;49382;-25.924;28.194;2022-10-20T09:54:26;42;42;
40947;PMS5003;49382;-25.924;28.194;2022-10-20T09:56:52;35;35;
40947;PMS5003;49382;-25.924;28.194;2022-10-20T09:59:19;27;26;
40947;PMS5003;49382;-25.924;28.194;2022-10-20T10:04:10;36;35;
40947;PMS5003;49382;-25.924;28.194;2022-10-20T10:06:39;41;41;
40947;PMS5003;49382;-25.924;28.194;2022-10-20T10:09:00;53;52;
40947;PMS5003;49382;-25.924;28.194;2022-10-20T10:11:27;39;37;
40947;PMS5003;49382;-25.924;28.194;2022-10-20T10:13:51;45;43;
40947;PMS5003;49382;-25.924;28.194;2022-10-20T10:16:17;62;61;
40947;PMS5003;49382;-25.924;28.194;2022-10-20T10:18:42;54;54;
40947;PMS5003;49382;-25.924;28.194;2022-10-20T10:21:06;52;51;
40947;PMS5003;49382;-25.924;28.194;2022-10-20T10:23:33;39;39;
40947;PMS5003;49382;-25.924;28.194;2022-10-20T10:25:58;33;33;
40947;PMS5003;49382;-25.924;28.194;2022-10-20T10:28:28;31;31;
40947;PMS5003;49382;-25.924;28.194;2022-10-20T10:30:49;28;28;
40947;PMS5003;49382;-25.924;28.194;2022-10-20T10:33:21;29;29;
40947;PMS5003;49382;-25.924;28.194;2022-10-20T10:35:41;30;30;
40947;PMS5003;49382;-25.924;28.194;2022-10-20T10:38:07;22;21;
40947;PMS5003;49382;-25.924;28.194;2022-10-20T10:40:34;28;28;
40947;PMS5003;49382;-25.924;28.194;2022-10-20T10:43:00;28;28;
40947;PMS5003;49382;-25.924;28.194;2022-10-20T10:45:25;36;36;
40947;PMS5003;49382;-25.924;28.194;2022-10-20T10:47:53;30;29;
40947;PMS5003;49382;-25.924;28.194;2022-10-20T10:52:42;26;25;
40947;PMS5003;49382;-25.924;28.194;2022-10-20T10:55:09;33;33;
40947;PMS5003;49382;-25.924;28.194;2022-10-20T10:57:31;30;30;
40947;PMS5003;49382;-25.924;28.194;2022-10-20T10:59:57;30;30;
40947;PMS5003;49382;-25.924;28.194;2022-10-20T11:04:52;26;25;
40947;PMS5003;49382;-25.924;28.194;2022-10-20T11:07:15;38;37;
40947;PMS5003;49382;-25.924;28.194;2022-10-20T11:09:40;41;41;
40947;PMS5003;49382;-25.924;28.194;2022-10-20T11:14:32;24;24;
40947;PMS5003;49382;-25.924;28.194;2022-10-20T11:16:59;34;32;
40947;PMS5003;49382;-25.924;28.194;2022-10-20T11:19:26;45;45;
40947;PMS5003;49382;-25.924;28.194;2022-10-20T11:21:50;32;32;
40947;PMS5003;49382;-25.924;28.194;2022-10-20T11:24:14;68;68;
40947;PMS5003;49382;-25.924;28.194;2022-10-20T11:26:37;85;84;
40947;PMS5003;49382;-25.924;28.194;2022-10-20T11:29:03;38;37;
40947;PMS5003;49382;-25.924;28.194;2022-10-20T11:31:28;76;76;
40947;PMS5003;49382;-25.924;28.194;2022-10-20T11:33:55;36;36;
40947;PMS5003;49382;-25.924;28.194;2022-10-20T11:36:18;34;33;
40947;PMS5003;49382;-25.924;28.194;2022-10-20T11:38:44;80;79;
40947;PMS5003;49382;-25.924;28.194;2022-10-20T11:41:10;49;49;
40947;PMS5003;49382;-25.924;28.194;2022-10-20T11:43:35;65;65;
40947;PMS5003;49382;-25.924;28.194;2022-10-20T11:46:00;60;60;
40947;PMS5003;49382;-25.924;28.194;2022-10-20T11:48:25;40;40;
40947;PMS5003;49382;-25.924;28.194;2022-10-20T11:50:51;76;76;
40947;PMS5003;49382;-25.924;28.194;2022-10-20T11:55:45;51;51;
40947;PMS5003;49382;-25.924;28.194;2022-10-20T11:58:12;35;34;
40947;PMS5003;49382;-25.924;28.194;2022-10-20T12:03:04;110;109;
40947;PMS5003;49382;-25.924;28.194;2022-10-20T12:05:27;103;102;
40947;PMS5003;49382;-25.924;28.194;2022-10-20T12:12:41;39;39;
40947;PMS5003;49382;-25.924;28.194;2022-10-20T12:17:30;34;34;
40947;PMS5003;49382;-25.924;28.194;2022-10-20T12:27:16;45;45;
40947;PMS5003;49382;-25.924;28.194;2022-10-20T12:34:28;36;36;
40947;PMS5003;49382;-25.924;28.194;2022-10-20T12:36:54;34;33;
40947;PMS5003;49382;-25.924;28.194;2022-10-20T12:39:20;44;44;
40947;PMS5003;49382;-25.924;28.194;2022-10-20T12:41:55;56;56;
40947;PMS5003;49382;-25.924;28.194;2022-10-20T12:44:13;74;74;
40947;PMS5003;49382;-25.924;28.194;2022-10-20T12:46:37;25;25;
40947;PMS5003;49382;-25.924;28.194;2022-10-20T12:49:02;25;25;
40947;PMS5003;49382;-25.924;28.194;2022-10-20T12:51:31;24;24;
40947;PMS5003;49382;-25.924;28.194;2022-10-20T12:53:54;26;25;
40947;PMS5003;49382;-25.924;28.194;2022-10-20T12:56:19;23;22;
40947;PMS5003;49382;-25.924;28.194;2022-10-20T13:01:10;25;25;
40947;PMS5003;49382;-25.924;28.194;2022-10-20T13:03:37;24;24;
40947;PMS5003;49382;-25.924;28.194;2022-10-20T13:06:02;46;46;
40947;PMS5003;49382;-25.924;28.194;2022-10-20T13:08:28;79;79;
40947;PMS5003;49382;-25.924;28.194;2022-10-20T13:10:53;101;101;
40947;PMS5003;49382;-25.924;28.194;2022-10-20T13:15:44;49;49;
40947;PMS5003;49382;-25.924;28.194;2022-10-20T13:18:13;47;47;
40947;PMS5003;49382;-25.924;28.194;2022-10-20T13:20:37;48;48;
40947;PMS5003;49382;-25.924;28.194;2022-10-20T13:22:59;99;99;
40947;PMS5003;49382;-25.924;28.194;2022-10-20T13:27:50;50;50;
40947;PMS5003;49382;-25.924;28.194;2022-10-20T13:30:18;41;41;
40947;PMS5003;49382;-25.924;28.194;2022-10-20T13:32:43;60;60;
40947;PMS5003;49382;-25.924;28.194;2022-10-20T13:35:06;43;43;
40947;PMS5003;49382;-25.924;28.194;2022-10-20T13:40:00;37;37;
40947;PMS5003;49382;-25.924;28.194;2022-10-20T13:42:26;38;38;
40947;PMS5003;49382;-25.924;28.194;2022-10-20T13:44:53;56;56;
40947;PMS5003;49382;-25.924;28.194;2022-10-20T13:47:26;76;76;
40947;PMS5003;49382;-25.924;28.194;2022-10-20T13:49:41;63;62;
40947;PMS5003;49382;-25.924;28.194;2022-10-20T13:52:07;43;43;
40947;PMS5003;49382;-25.924;28.194;2022-10-20T13:54:30;54;53;
40947;PMS5003;49382;-25.924;28.194;2022-10-20T13:56:55;38;38;
40947;PMS5003;49382;-25.924;28.194;2022-10-20T13:59:22;72;72;
40947;PMS5003;49382;-25.924;28.194;2022-10-20T14:01:47;58;58;
40947;PMS5003;49382;-25.924;28.194;2022-10-20T14:06:38;47;47;
40947;PMS5003;49382;-25.924;28.194;2022-10-20T14:11:29;39;39;
40947;PMS5003;49382;-25.924;28.194;2022-10-20T14:13:54;30;30;
40947;PMS5003;49382;-25.924;28.194;2022-10-20T14:16:21;33;33;
40947;PMS5003;49382;-25.924;28.194;2022-10-20T14:21:14;35;35;
40947;PMS5003;49382;-25.924;28.194;2022-10-20T14:23:36;55;55;
40947;PMS5003;49382;-25.924;28.194;2022-10-20T14:26:02;23;22;
40947;PMS5003;49382;-25.924;28.194;2022-10-20T14:28:27;87;87;
40947;PMS5003;49382;-25.924;28.194;2022-10-20T14:30:52;44;44;
40947;PMS5003;49382;-25.924;28.194;2022-10-20T14:33:18;46;46;
40947;PMS5003;49382;-25.924;28.194;2022-10-20T14:35:44;50;49;
40947;PMS5003;49382;-25.924;28.194;2022-10-20T14:38:15;40;40;
40947;PMS5003;49382;-25.924;28.194;2022-10-20T14:40:35;39;38;
40947;PMS5003;49382;-25.924;28.194;2022-10-20T14:43:03;55;52;
40947;PMS5003;49382;-25.924;28.194;2022-10-20T14:45:26;42;40;
40947;PMS5003;49382;-25.924;28.194;2022-10-20T14:47:53;70;69;
40947;PMS5003;49382;-25.924;28.194;2022-10-20T14:50:19;87;87;
40947;PMS5003;49382;-25.924;28.194;2022-10-20T14:52:42;79;79;
40947;PMS5003;49382;-25.924;28.194;2022-10-20T14:57:39;26;26;
40947;PMS5003;49382;-25.924;28.194;2022-10-20T15:00:00;30;29;
40947;PMS5003;49382;-25.924;28.194;2022-10-20T15:02:25;42;42;
40947;PMS5003;49382;-25.924;28.194;2022-10-20T15:04:50;33;33;
40947;PMS5003;49382;-25.924;28.194;2022-10-20T15:07:17;26;26;
40947;PMS5003;49382;-25.924;28.194;2022-10-20T15:09:42;56;55;
40947;PMS5003;49382;-25.924;28.194;2022-10-20T15:12:12;23;23;
40947;PMS5003;49382;-25.924;28.194;2022-10-20T15:14:33;50;49;
40947;PMS5003;49382;-25.924;28.194;2022-10-20T15:16:59;28;28;
40947;PMS5003;49382;-25.924;28.194;2022-10-20T15:19:27;35;34;
40947;PMS5003;49382;-25.924;28.194;2022-10-20T15:21:51;26;26;
40947;PMS5003;49382;-25.924;28.194;2022-10-20T15:24:16;30;29;
40947;PMS5003;49382;-25.924;28.194;2022-10-20T15:26:42;37;37;
40947;PMS5003;49382;-25.924;28.194;2022-10-20T15:29:07;53;53;
40947;PMS5003;49382;-25.924;28.194;2022-10-20T15:31:32;39;38;
40947;PMS5003;49382;-25.924;28.194;2022-10-20T15:33:57;33;32;
40947;PMS5003;49382;-25.924;28.194;2022-10-20T15:36:24;27;27;
40947;PMS5003;49382;-25.924;28.194;2022-10-20T15:38:48;22;22;
40947;PMS5003;49382;-25.924;28.194;2022-10-20T15:41:14;27;26;
40947;PMS5003;49382;-25.924;28.194;2022-10-20T15:43:39;33;33;
40947;PMS5003;49382;-25.924;28.194;2022-10-20T15:46:04;32;32;
40947;PMS5003;49382;-25.924;28.194;2022-10-20T15:48:29;43;43;
40947;PMS5003;49382;-25.924;28.194;2022-10-20T15:50:55;123;123;
40947;PMS5003;49382;-25.924;28.194;2022-10-20T15:53:21;139;139;
40947;PMS5003;49382;-25.924;28.194;2022-10-20T15:55:46;77;77;
40947;PMS5003;49382;-25.924;28.194;2022-10-20T15:58:12;137;137;
40947;PMS5003;49382;-25.924;28.194;2022-10-20T16:00:37;180;179;
40947;PMS5003;49382;-25.924;28.194;2022-10-20T16:03:03;224;224;
40947;PMS5003;49382;-25.924;28.194;2022-10-20T16:05:29;239;239;
40947;PMS5003;49382;-25.924;28.194;2022-10-20T16:07:54;253;253;
40947;PMS5003;49382;-25.924;28.194;2022-10-20T16:10:20;188;187;
40947;PMS5003;49382;-25.924;28.194;2022-10-20T16:12:45;165;164;
40947;PMS5003;49382;-25.924;28.194;2022-10-20T16:15:11;137;137;
40947;PMS5003;49382;-25.924;28.194;2022-10-20T16:17:36;46;46;
40947;PMS5003;49382;-25.924;28.194;2022-10-20T16:20:03;26;26;
40947;PMS5003;49382;-25.924;28.194;2022-10-20T16:22:27;30;30;
40947;PMS5003;49382;-25.924;28.194;2022-10-20T16:24:52;28;28;
40947;PMS5003;49382;-25.924;28.194;2022-10-20T16:27:17;28;28;
40947;PMS5003;49382;-25.924;28.194;2022-10-20T16:29:42;25;24;
40947;PMS5003;49382;-25.924;28.194;2022-10-20T16:32:08;27;26;
40947;PMS5003;49382;-25.924;28.194;2022-10-20T16:34:34;25;25;
40947;PMS5003;49382;-25.924;28.194;2022-10-20T16:36:59;24;24;
40947;PMS5003;49382;-25.924;28.194;2022-10-20T16:39:25;24;24;